sensor_id;sensor_type;location;lat;lon;timestamp;P1;durP1;ratioP1;P2;durP2;ratioP2
32319;SDS011;19080;51.750;5.888;2023-03-11T00:00:16;10.95;;;2.60;;
32319;SDS011;19080;51.750;5.888;2023-03-11T00:02:45;20.65;;;6.50;;
32319;SDS011;19080;51.750;5.888;2023-03-11T00:05:17;26.52;;;7.75;;
32319;SDS011;19080;51.750;5.888;2023-03-11T00:07:46;15.63;;;4.47;;
32319;SDS011;19080;51.750;5.888;2023-03-11T00:10:17;11.13;;;3.13;;
32319;SDS011;19080;51.750;5.888;2023-03-11T00:12:45;16.05;;;3.38;;
32319;SDS011;19080;51.750;5.888;2023-03-11T00:15:12;24.77;;;9.02;;
32319;SDS011;19080;51.750;5.888;2023-03-11T00:17:39;42.53;;;12.00;;
32319;SDS011;19080;51.750;5.888;2023-03-11T00:20:06;30.23;;;8.65;;
32319;SDS011;19080;51.750;5.888;2023-03-11T00:22:40;57.38;;;18.23;;
32319;SDS011;19080;51.750;5.888;2023-03-11T00:25:06;22.70;;;6.47;;
32319;SDS011;19080;51.750;5.888;2023-03-11T00:27:35;26.08;;;6.90;;
32319;SDS011;19080;51.750;5.888;2023-03-11T00:30:02;13.13;;;4.32;;
32319;SDS011;19080;51.750;5.888;2023-03-11T00:32:31;22.77;;;8.20;;
32319;SDS011;19080;51.750;5.888;2023-03-11T00:34:57;17.80;;;5.03;;
32319;SDS011;19080;51.750;5.888;2023-03-11T00:37:24;13.15;;;3.03;;
32319;SDS011;19080;51.750;5.888;2023-03-11T00:39:51;13.02;;;4.68;;
32319;SDS011;19080;51.750;5.888;2023-03-11T00:42:17;11.98;;;2.65;;
32319;SDS011;19080;51.750;5.888;2023-03-11T00:44:44;12.45;;;2.15;;
32319;SDS011;19080;51.750;5.888;2023-03-11T00:47:10;10.88;;;2.33;;
32319;SDS011;19080;51.750;5.888;2023-03-11T00:49:37;8.05;;;1.80;;
32319;SDS011;19080;51.750;5.888;2023-03-11T00:52:04;5.65;;;1.92;;
32319;SDS011;19080;51.750;5.888;2023-03-11T00:54:31;14.48;;;2.38;;
32319;SDS011;19080;51.750;5.888;2023-03-11T00:56:58;8.68;;;1.40;;
32319;SDS011;19080;51.750;5.888;2023-03-11T00:59:25;6.97;;;1.73;;
32319;SDS011;19080;51.750;5.888;2023-03-11T01:01:51;3.92;;;1.38;;
32319;SDS011;19080;51.750;5.888;2023-03-11T01:04:20;3.97;;;1.60;;
32319;SDS011;19080;51.750;5.888;2023-03-11T01:06:46;7.50;;;2.33;;
32319;SDS011;19080;51.750;5.888;2023-03-11T01:09:13;6.75;;;1.40;;
32319;SDS011;19080;51.750;5.888;2023-03-11T01:11:41;5.03;;;1.33;;
32319;SDS011;19080;51.750;5.888;2023-03-11T01:14:08;8.57;;;1.40;;
32319;SDS011;19080;51.750;5.888;2023-03-11T01:16:35;7.05;;;1.52;;
32319;SDS011;19080;51.750;5.888;2023-03-11T01:19:02;5.35;;;1.77;;
32319;SDS011;19080;51.750;5.888;2023-03-11T01:21:29;10.30;;;2.22;;
32319;SDS011;19080;51.750;5.888;2023-03-11T01:23:55;4.10;;;1.80;;
32319;SDS011;19080;51.750;5.888;2023-03-11T01:26:22;7.07;;;1.90;;
32319;SDS011;19080;51.750;5.888;2023-03-11T01:28:49;6.93;;;2.17;;
32319;SDS011;19080;51.750;5.888;2023-03-11T01:31:15;9.88;;;1.85;;
32319;SDS011;19080;51.750;5.888;2023-03-11T01:33:42;9.02;;;1.90;;
32319;SDS011;19080;51.750;5.888;2023-03-11T01:36:10;6.00;;;2.00;;
32319;SDS011;19080;51.750;5.888;2023-03-11T01:38:36;7.57;;;1.38;;
32319;SDS011;19080;51.750;5.888;2023-03-11T01:41:03;4.95;;;1.48;;
32319;SDS011;19080;51.750;5.888;2023-03-11T01:49:22;2.97;;;1.08;;
32319;SDS011;19080;51.750;5.888;2023-03-11T01:51:50;3.30;;;1.40;;
32319;SDS011;19080;51.750;5.888;2023-03-11T01:54:32;6.60;;;1.20;;
32319;SDS011;19080;51.750;5.888;2023-03-11T01:57:04;6.95;;;1.27;;
32319;SDS011;19080;51.750;5.888;2023-03-11T01:59:35;6.82;;;1.60;;
32319;SDS011;19080;51.750;5.888;2023-03-11T02:04:57;2.53;;;0.82;;
32319;SDS011;19080;51.750;5.888;2023-03-11T02:07:26;8.27;;;1.92;;
32319;SDS011;19080;51.750;5.888;2023-03-11T02:09:54;5.00;;;1.00;;
32319;SDS011;19080;51.750;5.888;2023-03-11T02:12:20;6.13;;;1.17;;
32319;SDS011;19080;51.750;5.888;2023-03-11T02:14:48;6.95;;;1.38;;
32319;SDS011;19080;51.750;5.888;2023-03-11T02:17:17;3.17;;;1.35;;
32319;SDS011;19080;51.750;5.888;2023-03-11T02:22:24;5.72;;;1.45;;
32319;SDS011;19080;51.750;5.888;2023-03-11T02:24:57;5.35;;;1.77;;
32319;SDS011;19080;51.750;5.888;2023-03-11T02:27:44;2.47;;;1.02;;
32319;SDS011;19080;51.750;5.888;2023-03-11T02:30:15;5.32;;;1.45;;
32319;SDS011;19080;51.750;5.888;2023-03-11T02:32:43;2.63;;;1.15;;
32319;SDS011;19080;51.750;5.888;2023-03-11T02:35:14;4.22;;;1.63;;
32319;SDS011;19080;51.750;5.888;2023-03-11T02:37:45;5.50;;;1.20;;
32319;SDS011;19080;51.750;5.888;2023-03-11T02:42:58;7.68;;;1.85;;
32319;SDS011;19080;51.750;5.888;2023-03-11T02:45:27;6.53;;;1.67;;
32319;SDS011;19080;51.750;5.888;2023-03-11T02:47:56;3.40;;;1.33;;
32319;SDS011;19080;51.750;5.888;2023-03-11T02:50:24;2.47;;;0.95;;
32319;SDS011;19080;51.750;5.888;2023-03-11T02:52:54;7.93;;;1.55;;
32319;SDS011;19080;51.750;5.888;2023-03-11T02:55:21;3.78;;;1.65;;
32319;SDS011;19080;51.750;5.888;2023-03-11T02:57:48;7.93;;;1.45;;
32319;SDS011;19080;51.750;5.888;2023-03-11T03:00:16;4.72;;;1.60;;
32319;SDS011;19080;51.750;5.888;2023-03-11T03:02:51;6.68;;;1.55;;
32319;SDS011;19080;51.750;5.888;2023-03-11T03:05:20;9.25;;;1.83;;
32319;SDS011;19080;51.750;5.888;2023-03-11T03:07:48;5.05;;;1.00;;
32319;SDS011;19080;51.750;5.888;2023-03-11T03:10:17;3.50;;;1.23;;
32319;SDS011;19080;51.750;5.888;2023-03-11T03:12:45;3.47;;;1.10;;
32319;SDS011;19080;51.750;5.888;2023-03-11T03:15:12;6.50;;;1.77;;
32319;SDS011;19080;51.750;5.888;2023-03-11T03:17:42;2.90;;;1.67;;
32319;SDS011;19080;51.750;5.888;2023-03-11T03:20:09;1.73;;;1.15;;
32319;SDS011;19080;51.750;5.888;2023-03-11T03:22:41;5.05;;;1.10;;
32319;SDS011;19080;51.750;5.888;2023-03-11T03:25:09;3.20;;;1.00;;
32319;SDS011;19080;51.750;5.888;2023-03-11T03:27:36;4.28;;;1.20;;
32319;SDS011;19080;51.750;5.888;2023-03-11T03:30:06;2.45;;;1.05;;
32319;SDS011;19080;51.750;5.888;2023-03-11T03:32:35;1.92;;;1.00;;
32319;SDS011;19080;51.750;5.888;2023-03-11T03:35:03;1.50;;;1.13;;
32319;SDS011;19080;51.750;5.888;2023-03-11T03:37:48;3.97;;;1.33;;
32319;SDS011;19080;51.750;5.888;2023-03-11T03:40:15;2.38;;;1.00;;
32319;SDS011;19080;51.750;5.888;2023-03-11T03:42:42;3.28;;;1.30;;
32319;SDS011;19080;51.750;5.888;2023-03-11T03:45:09;6.75;;;1.42;;
32319;SDS011;19080;51.750;5.888;2023-03-11T03:47:36;2.08;;;0.95;;
32319;SDS011;19080;51.750;5.888;2023-03-11T03:50:03;3.83;;;1.35;;
32319;SDS011;19080;51.750;5.888;2023-03-11T03:52:31;4.50;;;1.30;;
32319;SDS011;19080;51.750;5.888;2023-03-11T03:54:59;2.72;;;0.90;;
32319;SDS011;19080;51.750;5.888;2023-03-11T03:57:27;5.03;;;1.08;;
32319;SDS011;19080;51.750;5.888;2023-03-11T03:59:54;5.60;;;0.93;;
32319;SDS011;19080;51.750;5.888;2023-03-11T04:02:21;3.72;;;1.10;;
32319;SDS011;19080;51.750;5.888;2023-03-11T04:04:49;4.82;;;1.50;;
32319;SDS011;19080;51.750;5.888;2023-03-11T04:07:16;4.30;;;1.30;;
32319;SDS011;19080;51.750;5.888;2023-03-11T04:09:43;7.32;;;1.15;;
32319;SDS011;19080;51.750;5.888;2023-03-11T04:12:12;4.78;;;0.80;;
32319;SDS011;19080;51.750;5.888;2023-03-11T04:14:40;5.07;;;1.02;;
32319;SDS011;19080;51.750;5.888;2023-03-11T04:17:08;2.80;;;0.70;;
32319;SDS011;19080;51.750;5.888;2023-03-11T04:19:37;4.13;;;1.00;;
32319;SDS011;19080;51.750;5.888;2023-03-11T04:22:04;3.80;;;1.23;;
32319;SDS011;19080;51.750;5.888;2023-03-11T04:24:31;1.55;;;0.80;;
32319;SDS011;19080;51.750;5.888;2023-03-11T04:26:58;2.40;;;1.00;;
32319;SDS011;19080;51.750;5.888;2023-03-11T04:29:25;3.00;;;1.05;;
32319;SDS011;19080;51.750;5.888;2023-03-11T04:31:52;5.10;;;1.00;;
32319;SDS011;19080;51.750;5.888;2023-03-11T04:34:19;4.30;;;0.73;;
32319;SDS011;19080;51.750;5.888;2023-03-11T04:36:46;6.65;;;0.95;;
32319;SDS011;19080;51.750;5.888;2023-03-11T04:39:15;3.00;;;0.80;;
32319;SDS011;19080;51.750;5.888;2023-03-11T04:41:44;2.80;;;1.02;;
32319;SDS011;19080;51.750;5.888;2023-03-11T04:44:14;4.03;;;1.15;;
32319;SDS011;19080;51.750;5.888;2023-03-11T04:46:42;2.10;;;0.98;;
32319;SDS011;19080;51.750;5.888;2023-03-11T04:49:09;3.10;;;1.00;;
32319;SDS011;19080;51.750;5.888;2023-03-11T04:51:36;5.32;;;1.30;;
32319;SDS011;19080;51.750;5.888;2023-03-11T04:54:04;3.03;;;1.30;;
32319;SDS011;19080;51.750;5.888;2023-03-11T04:56:30;2.55;;;0.88;;
32319;SDS011;19080;51.750;5.888;2023-03-11T04:58:57;2.35;;;1.50;;
32319;SDS011;19080;51.750;5.888;2023-03-11T05:01:25;5.57;;;1.23;;
32319;SDS011;19080;51.750;5.888;2023-03-11T05:03:51;3.72;;;1.05;;
32319;SDS011;19080;51.750;5.888;2023-03-11T05:06:18;2.22;;;1.17;;
32319;SDS011;19080;51.750;5.888;2023-03-11T05:08:45;1.48;;;0.98;;
32319;SDS011;19080;51.750;5.888;2023-03-11T05:11:12;2.28;;;0.70;;
32319;SDS011;19080;51.750;5.888;2023-03-11T05:13:40;2.10;;;0.93;;
32319;SDS011;19080;51.750;5.888;2023-03-11T05:16:07;3.35;;;1.10;;
32319;SDS011;19080;51.750;5.888;2023-03-11T05:18:35;2.00;;;0.90;;
32319;SDS011;19080;51.750;5.888;2023-03-11T05:21:02;2.72;;;1.27;;
32319;SDS011;19080;51.750;5.888;2023-03-11T05:23:31;2.20;;;1.05;;
32319;SDS011;19080;51.750;5.888;2023-03-11T05:25:58;2.60;;;1.10;;
32319;SDS011;19080;51.750;5.888;2023-03-11T05:28:25;1.52;;;1.02;;
32319;SDS011;19080;51.750;5.888;2023-03-11T05:30:53;4.43;;;1.23;;
32319;SDS011;19080;51.750;5.888;2023-03-11T05:33:20;2.42;;;1.50;;
32319;SDS011;19080;51.750;5.888;2023-03-11T05:35:48;3.78;;;1.30;;
32319;SDS011;19080;51.750;5.888;2023-03-11T05:38:18;3.70;;;1.35;;
32319;SDS011;19080;51.750;5.888;2023-03-11T05:40:45;5.80;;;1.35;;
32319;SDS011;19080;51.750;5.888;2023-03-11T05:43:12;3.45;;;1.48;;
32319;SDS011;19080;51.750;5.888;2023-03-11T05:45:41;4.72;;;1.90;;
32319;SDS011;19080;51.750;5.888;2023-03-11T05:48:09;4.07;;;2.05;;
32319;SDS011;19080;51.750;5.888;2023-03-11T05:50:36;5.60;;;1.83;;
32319;SDS011;19080;51.750;5.888;2023-03-11T05:53:03;5.28;;;1.80;;
32319;SDS011;19080;51.750;5.888;2023-03-11T05:55:30;3.95;;;2.03;;
32319;SDS011;19080;51.750;5.888;2023-03-11T05:57:58;5.45;;;1.92;;
32319;SDS011;19080;51.750;5.888;2023-03-11T06:00:25;8.70;;;3.75;;
32319;SDS011;19080;51.750;5.888;2023-03-11T06:02:56;6.00;;;2.75;;
32319;SDS011;19080;51.750;5.888;2023-03-11T06:05:23;5.50;;;3.00;;
32319;SDS011;19080;51.750;5.888;2023-03-11T06:07:51;9.95;;;5.00;;
32319;SDS011;19080;51.750;5.888;2023-03-11T06:10:20;9.73;;;4.38;;
32319;SDS011;19080;51.750;5.888;2023-03-11T06:12:47;7.75;;;4.18;;
32319;SDS011;19080;51.750;5.888;2023-03-11T06:15:33;6.57;;;4.18;;
32319;SDS011;19080;51.750;5.888;2023-03-11T06:18:00;8.05;;;4.30;;
32319;SDS011;19080;51.750;5.888;2023-03-11T06:20:27;5.88;;;4.07;;
32319;SDS011;19080;51.750;5.888;2023-03-11T06:22:54;7.35;;;4.32;;
32319;SDS011;19080;51.750;5.888;2023-03-11T06:25:22;9.27;;;5.05;;
32319;SDS011;19080;51.750;5.888;2023-03-11T06:27:52;7.95;;;5.38;;
32319;SDS011;19080;51.750;5.888;2023-03-11T06:30:20;10.43;;;5.40;;
32319;SDS011;19080;51.750;5.888;2023-03-11T06:32:58;7.70;;;5.03;;
32319;SDS011;19080;51.750;5.888;2023-03-11T06:35:25;9.10;;;4.18;;
32319;SDS011;19080;51.750;5.888;2023-03-11T06:37:52;8.50;;;4.75;;
32319;SDS011;19080;51.750;5.888;2023-03-11T06:40:18;8.98;;;4.78;;
32319;SDS011;19080;51.750;5.888;2023-03-11T06:42:45;8.45;;;4.20;;
32319;SDS011;19080;51.750;5.888;2023-03-11T06:45:16;9.15;;;4.57;;
32319;SDS011;19080;51.750;5.888;2023-03-11T06:47:46;6.97;;;4.45;;
32319;SDS011;19080;51.750;5.888;2023-03-11T06:50:13;9.93;;;6.03;;
32319;SDS011;19080;51.750;5.888;2023-03-11T06:52:40;11.75;;;6.55;;
32319;SDS011;19080;51.750;5.888;2023-03-11T06:55:07;11.93;;;7.25;;
32319;SDS011;19080;51.750;5.888;2023-03-11T06:57:35;12.43;;;6.57;;
32319;SDS011;19080;51.750;5.888;2023-03-11T07:00:04;13.18;;;7.07;;
32319;SDS011;19080;51.750;5.888;2023-03-11T07:02:34;12.60;;;7.22;;
32319;SDS011;19080;51.750;5.888;2023-03-11T07:05:00;9.18;;;6.15;;
32319;SDS011;19080;51.750;5.888;2023-03-11T07:07:27;13.77;;;7.20;;
32319;SDS011;19080;51.750;5.888;2023-03-11T07:09:54;13.90;;;8.07;;
32319;SDS011;19080;51.750;5.888;2023-03-11T07:12:23;11.60;;;8.13;;
32319;SDS011;19080;51.750;5.888;2023-03-11T07:14:54;15.75;;;8.60;;
32319;SDS011;19080;51.750;5.888;2023-03-11T07:17:22;15.43;;;8.03;;
32319;SDS011;19080;51.750;5.888;2023-03-11T07:19:51;13.13;;;6.88;;
32319;SDS011;19080;51.750;5.888;2023-03-11T07:22:17;12.13;;;6.88;;
32319;SDS011;19080;51.750;5.888;2023-03-11T07:24:45;13.13;;;6.70;;
32319;SDS011;19080;51.750;5.888;2023-03-11T07:27:13;12.20;;;6.53;;
32319;SDS011;19080;51.750;5.888;2023-03-11T07:29:40;11.23;;;6.03;;
32319;SDS011;19080;51.750;5.888;2023-03-11T07:32:07;46.75;;;23.38;;
32319;SDS011;19080;51.750;5.888;2023-03-11T07:34:34;12.27;;;5.75;;
32319;SDS011;19080;51.750;5.888;2023-03-11T07:37:01;8.25;;;3.20;;
32319;SDS011;19080;51.750;5.888;2023-03-11T07:39:28;9.60;;;6.40;;
32319;SDS011;19080;51.750;5.888;2023-03-11T07:41:55;10.13;;;4.63;;
32319;SDS011;19080;51.750;5.888;2023-03-11T07:44:29;8.52;;;3.92;;
32319;SDS011;19080;51.750;5.888;2023-03-11T07:46:56;6.25;;;3.33;;
32319;SDS011;19080;51.750;5.888;2023-03-11T07:49:22;6.55;;;2.97;;
32319;SDS011;19080;51.750;5.888;2023-03-11T07:51:49;7.65;;;3.20;;
32319;SDS011;19080;51.750;5.888;2023-03-11T07:54:16;6.00;;;2.55;;
32319;SDS011;19080;51.750;5.888;2023-03-11T07:56:42;7.80;;;3.10;;
32319;SDS011;19080;51.750;5.888;2023-03-11T07:59:09;11.50;;;5.47;;
32319;SDS011;19080;51.750;5.888;2023-03-11T08:01:35;4.40;;;2.17;;
32319;SDS011;19080;51.750;5.888;2023-03-11T08:04:07;10.43;;;2.75;;
32319;SDS011;19080;51.750;5.888;2023-03-11T08:06:40;9.02;;;4.53;;
32319;SDS011;19080;51.750;5.888;2023-03-11T08:09:08;8.48;;;3.30;;
32319;SDS011;19080;51.750;5.888;2023-03-11T08:11:35;7.32;;;2.70;;
32319;SDS011;19080;51.750;5.888;2023-03-11T08:14:02;7.47;;;2.90;;
32319;SDS011;19080;51.750;5.888;2023-03-11T08:16:30;6.43;;;3.85;;
32319;SDS011;19080;51.750;5.888;2023-03-11T08:18:57;6.80;;;3.15;;
32319;SDS011;19080;51.750;5.888;2023-03-11T08:21:24;5.35;;;3.00;;
32319;SDS011;19080;51.750;5.888;2023-03-11T08:23:52;4.70;;;2.92;;
32319;SDS011;19080;51.750;5.888;2023-03-11T08:26:23;7.67;;;2.87;;
32319;SDS011;19080;51.750;5.888;2023-03-11T08:28:50;3.80;;;1.73;;
32319;SDS011;19080;51.750;5.888;2023-03-11T08:31:18;6.53;;;1.98;;
32319;SDS011;19080;51.750;5.888;2023-03-11T08:33:49;4.22;;;1.73;;
32319;SDS011;19080;51.750;5.888;2023-03-11T08:36:18;6.28;;;1.40;;
32319;SDS011;19080;51.750;5.888;2023-03-11T08:38:45;6.05;;;1.73;;
32319;SDS011;19080;51.750;5.888;2023-03-11T08:41:12;5.63;;;1.73;;
32319;SDS011;19080;51.750;5.888;2023-03-11T08:43:40;5.80;;;1.58;;
32319;SDS011;19080;51.750;5.888;2023-03-11T08:46:07;9.27;;;2.00;;
32319;SDS011;19080;51.750;5.888;2023-03-11T08:48:35;4.55;;;1.50;;
32319;SDS011;19080;51.750;5.888;2023-03-11T08:51:07;4.22;;;1.63;;
32319;SDS011;19080;51.750;5.888;2023-03-11T08:53:35;4.63;;;1.67;;
32319;SDS011;19080;51.750;5.888;2023-03-11T08:56:03;3.75;;;1.50;;
32319;SDS011;19080;51.750;5.888;2023-03-11T08:58:30;5.60;;;1.60;;
32319;SDS011;19080;51.750;5.888;2023-03-11T09:00:56;8.30;;;2.47;;
32319;SDS011;19080;51.750;5.888;2023-03-11T09:03:23;7.00;;;1.58;;
32319;SDS011;19080;51.750;5.888;2023-03-11T09:05:57;4.47;;;1.30;;
32319;SDS011;19080;51.750;5.888;2023-03-11T09:08:25;4.60;;;1.83;;
32319;SDS011;19080;51.750;5.888;2023-03-11T09:10:52;5.30;;;1.50;;
32319;SDS011;19080;51.750;5.888;2023-03-11T09:13:19;2.83;;;1.10;;
32319;SDS011;19080;51.750;5.888;2023-03-11T09:15:49;4.32;;;1.30;;
32319;SDS011;19080;51.750;5.888;2023-03-11T09:18:16;5.00;;;1.08;;
32319;SDS011;19080;51.750;5.888;2023-03-11T09:20:43;8.18;;;1.70;;
32319;SDS011;19080;51.750;5.888;2023-03-11T09:23:11;4.65;;;1.45;;
32319;SDS011;19080;51.750;5.888;2023-03-11T09:25:39;4.78;;;1.13;;
32319;SDS011;19080;51.750;5.888;2023-03-11T09:28:06;4.20;;;1.45;;
32319;SDS011;19080;51.750;5.888;2023-03-11T09:30:33;3.67;;;1.27;;
32319;SDS011;19080;51.750;5.888;2023-03-11T09:32:59;7.05;;;1.40;;
32319;SDS011;19080;51.750;5.888;2023-03-11T09:35:26;3.90;;;1.27;;
32319;SDS011;19080;51.750;5.888;2023-03-11T09:37:53;5.72;;;1.25;;
32319;SDS011;19080;51.750;5.888;2023-03-11T09:40:20;3.92;;;0.90;;
32319;SDS011;19080;51.750;5.888;2023-03-11T09:45:44;4.82;;;1.13;;
32319;SDS011;19080;51.750;5.888;2023-03-11T09:48:36;7.60;;;1.92;;
32319;SDS011;19080;51.750;5.888;2023-03-11T09:51:15;5.60;;;2.10;;
32319;SDS011;19080;51.750;5.888;2023-03-11T09:56:29;3.67;;;1.02;;
32319;SDS011;19080;51.750;5.888;2023-03-11T09:59:39;4.90;;;1.30;;
32319;SDS011;19080;51.750;5.888;2023-03-11T10:01:54;6.40;;;1.60;;
32319;SDS011;19080;51.750;5.888;2023-03-11T10:07:14;2.53;;;1.10;;
32319;SDS011;19080;51.750;5.888;2023-03-11T10:09:49;4.07;;;1.20;;
32319;SDS011;19080;51.750;5.888;2023-03-11T10:15:13;4.22;;;1.25;;
32319;SDS011;19080;51.750;5.888;2023-03-11T10:25:48;4.30;;;1.20;;
32319;SDS011;19080;51.750;5.888;2023-03-11T10:28:31;3.20;;;0.93;;
32319;SDS011;19080;51.750;5.888;2023-03-11T10:31:07;3.53;;;1.08;;
32319;SDS011;19080;51.750;5.888;2023-03-11T10:33:49;4.15;;;1.08;;
32319;SDS011;19080;51.750;5.888;2023-03-11T10:39:39;1.48;;;0.90;;
32319;SDS011;19080;51.750;5.888;2023-03-11T10:42:11;3.38;;;1.02;;
32319;SDS011;19080;51.750;5.888;2023-03-11T10:44:41;2.60;;;0.57;;
32319;SDS011;19080;51.750;5.888;2023-03-11T10:47:18;7.20;;;0.90;;
32319;SDS011;19080;51.750;5.888;2023-03-11T10:49:46;2.97;;;0.90;;
32319;SDS011;19080;51.750;5.888;2023-03-11T10:52:13;2.55;;;1.00;;
32319;SDS011;19080;51.750;5.888;2023-03-11T10:54:40;3.58;;;1.20;;
32319;SDS011;19080;51.750;5.888;2023-03-11T10:57:27;6.60;;;1.00;;
32319;SDS011;19080;51.750;5.888;2023-03-11T10:59:59;4.40;;;0.90;;
32319;SDS011;19080;51.750;5.888;2023-03-11T11:02:27;2.10;;;0.80;;
32319;SDS011;19080;51.750;5.888;2023-03-11T11:07:44;1.40;;;0.85;;
32319;SDS011;19080;51.750;5.888;2023-03-11T11:10:25;2.28;;;0.68;;
32319;SDS011;19080;51.750;5.888;2023-03-11T11:12:54;2.78;;;0.82;;
32319;SDS011;19080;51.750;5.888;2023-03-11T11:15:36;2.10;;;0.85;;
32319;SDS011;19080;51.750;5.888;2023-03-11T11:18:19;4.55;;;0.93;;
32319;SDS011;19080;51.750;5.888;2023-03-11T11:21:05;2.33;;;0.90;;
32319;SDS011;19080;51.750;5.888;2023-03-11T11:23:49;3.67;;;0.90;;
32319;SDS011;19080;51.750;5.888;2023-03-11T11:26:29;3.88;;;0.98;;
32319;SDS011;19080;51.750;5.888;2023-03-11T11:31:35;2.53;;;0.90;;
32319;SDS011;19080;51.750;5.888;2023-03-11T11:34:27;1.83;;;0.73;;
32319;SDS011;19080;51.750;5.888;2023-03-11T11:36:57;2.13;;;1.05;;
32319;SDS011;19080;51.750;5.888;2023-03-11T11:39:27;2.10;;;0.85;;
32319;SDS011;19080;51.750;5.888;2023-03-11T11:41:58;4.22;;;0.77;;
32319;SDS011;19080;51.750;5.888;2023-03-11T11:44:32;3.33;;;1.25;;
32319;SDS011;19080;51.750;5.888;2023-03-11T11:47:02;3.83;;;0.82;;
32319;SDS011;19080;51.750;5.888;2023-03-11T11:49:35;3.60;;;1.00;;
32319;SDS011;19080;51.750;5.888;2023-03-11T11:52:13;3.95;;;0.90;;
32319;SDS011;19080;51.750;5.888;2023-03-11T11:54:49;3.30;;;0.80;;
32319;SDS011;19080;51.750;5.888;2023-03-11T11:57:19;5.50;;;1.17;;
32319;SDS011;19080;51.750;5.888;2023-03-11T11:59:47;10.05;;;1.50;;
32319;SDS011;19080;51.750;5.888;2023-03-11T12:05:16;6.93;;;0.80;;
32319;SDS011;19080;51.750;5.888;2023-03-11T12:16:22;5.35;;;0.98;;
32319;SDS011;19080;51.750;5.888;2023-03-11T12:21:46;1.80;;;0.60;;
32319;SDS011;19080;51.750;5.888;2023-03-11T12:27:32;4.60;;;0.98;;
32319;SDS011;19080;51.750;5.888;2023-03-11T12:30:11;2.78;;;0.85;;
32319;SDS011;19080;51.750;5.888;2023-03-11T12:32:50;4.07;;;0.85;;
32319;SDS011;19080;51.750;5.888;2023-03-11T12:35:25;2.20;;;0.60;;
32319;SDS011;19080;51.750;5.888;2023-03-11T12:38:03;3.97;;;0.93;;
32319;SDS011;19080;51.750;5.888;2023-03-11T12:46:00;5.68;;;0.93;;
32319;SDS011;19080;51.750;5.888;2023-03-11T12:48:45;3.00;;;0.75;;
32319;SDS011;19080;51.750;5.888;2023-03-11T12:53:54;1.75;;;0.63;;
32319;SDS011;19080;51.750;5.888;2023-03-11T13:01:50;1.38;;;0.60;;
32319;SDS011;19080;51.750;5.888;2023-03-11T13:09:38;2.63;;;0.80;;
32319;SDS011;19080;51.750;5.888;2023-03-11T13:15:18;4.15;;;0.95;;
32319;SDS011;19080;51.750;5.888;2023-03-11T13:33:47;2.90;;;0.80;;
32319;SDS011;19080;51.750;5.888;2023-03-11T13:36:20;3.42;;;0.63;;
32319;SDS011;19080;51.750;5.888;2023-03-11T13:41:45;2.83;;;0.82;;
32319;SDS011;19080;51.750;5.888;2023-03-11T13:44:15;5.22;;;0.80;;
32319;SDS011;19080;51.750;5.888;2023-03-11T13:46:51;3.80;;;0.70;;
32319;SDS011;19080;51.750;5.888;2023-03-11T13:49:24;2.60;;;0.73;;
32319;SDS011;19080;51.750;5.888;2023-03-11T13:51:56;1.15;;;0.60;;
32319;SDS011;19080;51.750;5.888;2023-03-11T13:54:35;2.97;;;0.70;;
32319;SDS011;19080;51.750;5.888;2023-03-11T13:57:05;4.20;;;0.80;;
32319;SDS011;19080;51.750;5.888;2023-03-11T13:59:51;4.32;;;1.00;;
32319;SDS011;19080;51.750;5.888;2023-03-11T14:02:21;1.58;;;0.50;;
32319;SDS011;19080;51.750;5.888;2023-03-11T14:04:55;4.38;;;0.68;;
32319;SDS011;19080;51.750;5.888;2023-03-11T14:07:31;3.45;;;0.90;;
32319;SDS011;19080;51.750;5.888;2023-03-11T14:10:14;4.32;;;1.20;;
32319;SDS011;19080;51.750;5.888;2023-03-11T14:12:41;6.18;;;1.08;;
32319;SDS011;19080;51.750;5.888;2023-03-11T14:15:08;1.70;;;0.80;;
32319;SDS011;19080;51.750;5.888;2023-03-11T14:17:39;2.15;;;0.60;;
32319;SDS011;19080;51.750;5.888;2023-03-11T14:22:40;7.15;;;3.60;;
32319;SDS011;19080;51.750;5.888;2023-03-11T14:25:13;1.90;;;0.75;;
32319;SDS011;19080;51.750;5.888;2023-03-11T14:27:46;5.35;;;1.42;;
32319;SDS011;19080;51.750;5.888;2023-03-11T14:30:18;5.15;;;0.98;;
32319;SDS011;19080;51.750;5.888;2023-03-11T14:32:56;2.83;;;1.00;;
32319;SDS011;19080;51.750;5.888;2023-03-11T14:35:29;3.65;;;0.82;;
32319;SDS011;19080;51.750;5.888;2023-03-11T14:37:59;2.00;;;1.00;;
32319;SDS011;19080;51.750;5.888;2023-03-11T14:40:32;2.40;;;0.85;;
32319;SDS011;19080;51.750;5.888;2023-03-11T14:43:05;4.20;;;1.10;;
32319;SDS011;19080;51.750;5.888;2023-03-11T14:45:34;4.05;;;1.10;;
32319;SDS011;19080;51.750;5.888;2023-03-11T14:48:05;4.05;;;1.13;;
32319;SDS011;19080;51.750;5.888;2023-03-11T14:50:39;2.00;;;1.02;;
32319;SDS011;19080;51.750;5.888;2023-03-11T14:53:22;1.42;;;0.95;;
32319;SDS011;19080;51.750;5.888;2023-03-11T14:58:36;12.77;;;5.82;;
32319;SDS011;19080;51.750;5.888;2023-03-11T15:06:31;3.85;;;0.80;;
32319;SDS011;19080;51.750;5.888;2023-03-11T15:09:01;3.10;;;1.38;;
32319;SDS011;19080;51.750;5.888;2023-03-11T15:11:52;3.45;;;2.58;;
32319;SDS011;19080;51.750;5.888;2023-03-11T15:14:22;2.28;;;1.77;;
32319;SDS011;19080;51.750;5.888;2023-03-11T15:17:15;4.03;;;1.27;;
32319;SDS011;19080;51.750;5.888;2023-03-11T15:20:20;2.80;;;1.10;;
32319;SDS011;19080;51.750;5.888;2023-03-11T15:22:52;1.40;;;0.82;;
32319;SDS011;19080;51.750;5.888;2023-03-11T15:25:26;4.10;;;1.70;;
32319;SDS011;19080;51.750;5.888;2023-03-11T15:27:54;2.85;;;1.00;;
32319;SDS011;19080;51.750;5.888;2023-03-11T15:32:47;2.50;;;0.90;;
32319;SDS011;19080;51.750;5.888;2023-03-11T15:37:44;4.00;;;1.00;;
32319;SDS011;19080;51.750;5.888;2023-03-11T15:45:41;1.48;;;0.80;;
32319;SDS011;19080;51.750;5.888;2023-03-11T15:48:09;3.35;;;1.27;;
32319;SDS011;19080;51.750;5.888;2023-03-11T15:50:44;3.83;;;1.20;;
32319;SDS011;19080;51.750;5.888;2023-03-11T15:53:20;3.05;;;1.40;;
32319;SDS011;19080;51.750;5.888;2023-03-11T15:55:47;3.45;;;1.63;;
32319;SDS011;19080;51.750;5.888;2023-03-11T15:58:15;2.22;;;1.17;;
32319;SDS011;19080;51.750;5.888;2023-03-11T16:00:46;3.67;;;1.65;;
32319;SDS011;19080;51.750;5.888;2023-03-11T16:03:18;2.00;;;0.88;;
32319;SDS011;19080;51.750;5.888;2023-03-11T16:05:45;2.67;;;1.17;;
32319;SDS011;19080;51.750;5.888;2023-03-11T16:08:12;2.60;;;1.02;;
32319;SDS011;19080;51.750;5.888;2023-03-11T16:10:39;2.78;;;1.20;;
32319;SDS011;19080;51.750;5.888;2023-03-11T16:13:09;2.22;;;0.93;;
32319;SDS011;19080;51.750;5.888;2023-03-11T16:18:08;2.78;;;1.23;;
32319;SDS011;19080;51.750;5.888;2023-03-11T16:20:36;3.80;;;1.77;;
32319;SDS011;19080;51.750;5.888;2023-03-11T16:23:06;5.38;;;1.30;;
32319;SDS011;19080;51.750;5.888;2023-03-11T16:25:41;4.47;;;1.25;;
32319;SDS011;19080;51.750;5.888;2023-03-11T16:28:10;4.38;;;1.10;;
32319;SDS011;19080;51.750;5.888;2023-03-11T16:30:39;1.98;;;0.90;;
32319;SDS011;19080;51.750;5.888;2023-03-11T16:33:05;2.40;;;1.45;;
32319;SDS011;19080;51.750;5.888;2023-03-11T16:35:32;3.45;;;1.30;;
32319;SDS011;19080;51.750;5.888;2023-03-11T16:37:59;3.97;;;1.05;;
32319;SDS011;19080;51.750;5.888;2023-03-11T16:40:27;3.35;;;1.42;;
32319;SDS011;19080;51.750;5.888;2023-03-11T16:42:56;2.38;;;1.20;;
32319;SDS011;19080;51.750;5.888;2023-03-11T16:45:25;3.47;;;1.38;;
32319;SDS011;19080;51.750;5.888;2023-03-11T16:47:52;2.97;;;1.15;;
32319;SDS011;19080;51.750;5.888;2023-03-11T16:50:19;4.82;;;2.10;;
32319;SDS011;19080;51.750;5.888;2023-03-11T16:52:46;4.35;;;1.55;;
32319;SDS011;19080;51.750;5.888;2023-03-11T16:55:13;4.25;;;1.45;;
32319;SDS011;19080;51.750;5.888;2023-03-11T16:57:39;5.38;;;1.52;;
32319;SDS011;19080;51.750;5.888;2023-03-11T17:00:06;3.38;;;1.50;;
32319;SDS011;19080;51.750;5.888;2023-03-11T17:02:35;2.67;;;1.42;;
32319;SDS011;19080;51.750;5.888;2023-03-11T17:05:03;3.25;;;1.70;;